Rockwood, ME

7:05 AM EDT on May 28, 2015 (GMT -0400)
Tomhegan Twp | | Change Station
CLOSE
Current Station
Personal Weather Station
Location: Rockwood, ME
Elevation: 1056 ft
Nearby Weather Stations

Elev 1056 ft 45.77 °N, 69.79 °W | Updated 2 seconds ago

Mostly Cloudy
Mostly Cloudy
59.5 °F
Feels Like 59.5 °F
N
0.0
Wind Variable Wind from SSW
Gusts 2.0 mph

Today
High -- | Low -- °F
--% Chance of Precip.
Yesterday
High -- | Low -- °F
Precip. -- in
4:55 AM 8:17 PM
Waxing Gibbous, 75% visible
Pressure 30.04 in
Visibility 5.0 miles
Clouds Overcast 400 ft
Dew Point 59 °F
Humidity 97%
Rainfall 0.00 in
Snow Depth Not available.
UV 0 out of 12
Pollen 9.30 out of 12
Air Quality Not available.
Flu Activity Local Activity
METAR KMLT 281053Z AUTO VRB04KT 5SM BR OVC004 19/18 A3003 RMK AO2 SLP171 T01890178

More Conditions Fewer Conditions

Pressure 30.04 in
Visibility 5.0 miles
Clouds Overcast 400 ft
Dew Point 59 °F
Humidity 97%
Rainfall 0.00 in
Snow Depth Not available.
UV 0 out of 12
Pollen 9.30 out of 12
Air Quality Not available.
Flu Activity Local Activity
METAR KMLT 281053Z AUTO VRB04KT 5SM BR OVC004 19/18 A3003 RMK AO2 SLP171 T01890178

More Conditions Fewer Conditions

10-Day Weather Forecast

Almanac

Astronomy

May. 28, 2015 Rise Set
Actual Time
Civil Twilight
Nautical Twilight
Astronomical Twilight
Moon
Length of Visible Light
Length of Day
Tomorrow will be .
, % of the Moon is Illuminated

Today's Extremes

State Highs State Lows

Community

WunderPhotos

Upload Photos

1,824,946 photos uploaded!

WunderBlogs® & News

Nearby

Air Quality

  Air Quality AQ Index Pollutant
Not available.

Snow Depth

Station Depth Elevation

Earthquake Activity

City Distance Mag. Time & Date
Minimum magnitude displayed is 2.5.

Coastal Water Temperatures

Place Temperature

Stations

Nearby Weather Stations

Station Location Temp. Windchill Dew Point Humidity Wind Precip. Elev Updated Type